sensor_id;sensor_type;location;lat;lon;timestamp;temperature;humidity
35381;DHT22;21486;51.916;8.378;2022-12-18T00:02:21;-9.40;91.80
35381;DHT22;21486;51.916;8.378;2022-12-18T00:04:47;-9.50;92.30
35381;DHT22;21486;51.916;8.378;2022-12-18T00:07:12;-9.40;92.40
35381;DHT22;21486;51.916;8.378;2022-12-18T00:09:38;-9.40;92.80
35381;DHT22;21486;51.916;8.378;2022-12-18T00:12:03;-9.40;92.80
35381;DHT22;21486;51.916;8.378;2022-12-18T00:14:29;-9.40;92.40
35381;DHT22;21486;51.916;8.378;2022-12-18T00:16:54;-9.40;92.30
35381;DHT22;21486;51.916;8.378;2022-12-18T00:19:20;-9.40;92.20
35381;DHT22;21486;51.916;8.378;2022-12-18T00:21:45;-9.40;92.70
35381;DHT22;21486;51.916;8.378;2022-12-18T00:24:11;-9.30;93.00
35381;DHT22;21486;51.916;8.378;2022-12-18T00:26:37;-9.30;93.00
35381;DHT22;21486;51.916;8.378;2022-12-18T00:29:05;-9.30;92.70
35381;DHT22;21486;51.916;8.378;2022-12-18T00:31:30;-9.30;92.60
35381;DHT22;21486;51.916;8.378;2022-12-18T00:33:56;-9.30;92.70
35381;DHT22;21486;51.916;8.378;2022-12-18T00:36:23;-9.30;92.60
35381;DHT22;21486;51.916;8.378;2022-12-18T00:38:49;-9.30;92.60
35381;DHT22;21486;51.916;8.378;2022-12-18T00:41:15;-9.30;92.70
35381;DHT22;21486;51.916;8.378;2022-12-18T00:44:04;-9.30;92.60
35381;DHT22;21486;51.916;8.378;2022-12-18T00:46:30;-9.30;92.50
35381;DHT22;21486;51.916;8.378;2022-12-18T00:48:55;-9.30;92.60
35381;DHT22;21486;51.916;8.378;2022-12-18T00:51:21;-9.30;93.00
35381;DHT22;21486;51.916;8.378;2022-12-18T00:53:46;-9.30;92.80
35381;DHT22;21486;51.916;8.378;2022-12-18T00:56:12;-9.20;92.80
35381;DHT22;21486;51.916;8.378;2022-12-18T00:58:37;-9.20;93.10
35381;DHT22;21486;51.916;8.378;2022-12-18T01:01:03;-9.20;93.10
35381;DHT22;21486;51.916;8.378;2022-12-18T01:03:29;-9.10;93.80
35381;DHT22;21486;51.916;8.378;2022-12-18T01:05:54;-8.90;94.50
35381;DHT22;21486;51.916;8.378;2022-12-18T01:08:20;-8.80;94.80
35381;DHT22;21486;51.916;8.378;2022-12-18T01:10:45;-8.70;95.00
35381;DHT22;21486;51.916;8.378;2022-12-18T01:13:11;-8.60;95.50
35381;DHT22;21486;51.916;8.378;2022-12-18T01:15:36;-8.50;95.40
35381;DHT22;21486;51.916;8.378;2022-12-18T01:18:02;-8.50;95.20
35381;DHT22;21486;51.916;8.378;2022-12-18T01:20:27;-8.50;94.90
35381;DHT22;21486;51.916;8.378;2022-12-18T01:22:53;-8.60;94.40
35381;DHT22;21486;51.916;8.378;2022-12-18T01:25:18;-8.70;94.00
35381;DHT22;21486;51.916;8.378;2022-12-18T01:27:44;-8.70;94.00
35381;DHT22;21486;51.916;8.378;2022-12-18T01:33:04;-8.80;93.40
35381;DHT22;21486;51.916;8.378;2022-12-18T01:35:30;-8.90;93.60
35381;DHT22;21486;51.916;8.378;2022-12-18T01:37:55;-8.90;93.60
35381;DHT22;21486;51.916;8.378;2022-12-18T01:40:21;-8.90;93.80
35381;DHT22;21486;51.916;8.378;2022-12-18T01:42:53;-8.80;94.60
35381;DHT22;21486;51.916;8.378;2022-12-18T01:45:22;-8.50;94.80
35381;DHT22;21486;51.916;8.378;2022-12-18T01:48:03;-8.50;94.60
35381;DHT22;21486;51.916;8.378;2022-12-18T01:50:31;-8.40;94.50
35381;DHT22;21486;51.916;8.378;2022-12-18T01:55:37;-8.60;94.00
35381;DHT22;21486;51.916;8.378;2022-12-18T01:58:04;-8.60;93.40
35381;DHT22;21486;51.916;8.378;2022-12-18T02:00:30;-8.70;93.30
35381;DHT22;21486;51.916;8.378;2022-12-18T02:02:56;-8.80;93.30
35381;DHT22;21486;51.916;8.378;2022-12-18T02:05:40;-8.80;93.00
35381;DHT22;21486;51.916;8.378;2022-12-18T02:08:22;-8.90;93.20
35381;DHT22;21486;51.916;8.378;2022-12-18T02:11:25;-8.90;93.00
35381;DHT22;21486;51.916;8.378;2022-12-18T02:14:17;-8.90;93.00
35381;DHT22;21486;51.916;8.378;2022-12-18T02:16:56;-9.00;93.00
35381;DHT22;21486;51.916;8.378;2022-12-18T02:22:45;-9.10;93.00
35381;DHT22;21486;51.916;8.378;2022-12-18T02:28:20;-9.00;92.70
35381;DHT22;21486;51.916;8.378;2022-12-18T02:30:48;-9.10;92.50
35381;DHT22;21486;51.916;8.378;2022-12-18T02:33:16;-9.10;92.60
35381;DHT22;21486;51.916;8.378;2022-12-18T02:35:44;-9.10;92.40
35381;DHT22;21486;51.916;8.378;2022-12-18T02:38:12;-9.10;92.00
35381;DHT22;21486;51.916;8.378;2022-12-18T02:40:38;-9.20;92.10
35381;DHT22;21486;51.916;8.378;2022-12-18T02:43:13;-9.20;92.30
35381;DHT22;21486;51.916;8.378;2022-12-18T02:45:57;-9.20;92.60
35381;DHT22;21486;51.916;8.378;2022-12-18T02:48:28;-9.20;92.70
35381;DHT22;21486;51.916;8.378;2022-12-18T02:51:08;-9.20;92.50
35381;DHT22;21486;51.916;8.378;2022-12-18T02:53:47;-9.20;92.00
35381;DHT22;21486;51.916;8.378;2022-12-18T02:56:20;-9.20;92.20
35381;DHT22;21486;51.916;8.378;2022-12-18T02:58:58;-9.20;92.80
35381;DHT22;21486;51.916;8.378;2022-12-18T03:04:03;-9.20;92.30
35381;DHT22;21486;51.916;8.378;2022-12-18T03:06:30;-9.20;92.40
35381;DHT22;21486;51.916;8.378;2022-12-18T03:09:04;-9.20;92.30
35381;DHT22;21486;51.916;8.378;2022-12-18T03:11:34;-9.20;92.30
35381;DHT22;21486;51.916;8.378;2022-12-18T03:14:21;-9.20;92.30
35381;DHT22;21486;51.916;8.378;2022-12-18T03:16:50;-9.20;92.70
35381;DHT22;21486;51.916;8.378;2022-12-18T03:19:21;-9.20;92.60
35381;DHT22;21486;51.916;8.378;2022-12-18T03:21:51;-9.20;92.60
35381;DHT22;21486;51.916;8.378;2022-12-18T03:24:19;-9.20;92.60
35381;DHT22;21486;51.916;8.378;2022-12-18T03:26:48;-9.20;92.20
35381;DHT22;21486;51.916;8.378;2022-12-18T03:29:25;-9.30;92.20
35381;DHT22;21486;51.916;8.378;2022-12-18T03:32:00;-9.30;92.20
35381;DHT22;21486;51.916;8.378;2022-12-18T03:34:30;-9.30;91.90
35381;DHT22;21486;51.916;8.378;2022-12-18T03:36:57;-9.30;91.80
35381;DHT22;21486;51.916;8.378;2022-12-18T03:39:24;-9.40;91.80
35381;DHT22;21486;51.916;8.378;2022-12-18T03:42:10;-9.40;92.00
35381;DHT22;21486;51.916;8.378;2022-12-18T03:50:19;-9.40;92.40
35381;DHT22;21486;51.916;8.378;2022-12-18T03:53:09;-9.40;92.30
35381;DHT22;21486;51.916;8.378;2022-12-18T03:55:37;-9.50;92.00
35381;DHT22;21486;51.916;8.378;2022-12-18T03:58:04;-9.40;91.80
35381;DHT22;21486;51.916;8.378;2022-12-18T04:00:31;-9.40;91.80
35381;DHT22;21486;51.916;8.378;2022-12-18T04:02:59;-9.40;91.90
35381;DHT22;21486;51.916;8.378;2022-12-18T04:05:26;-9.40;92.30
35381;DHT22;21486;51.916;8.378;2022-12-18T04:07:54;-9.40;92.20
35381;DHT22;21486;51.916;8.378;2022-12-18T04:10:20;-9.40;91.90
35381;DHT22;21486;51.916;8.378;2022-12-18T04:12:46;-9.40;91.90
35381;DHT22;21486;51.916;8.378;2022-12-18T04:15:12;-9.40;92.10
35381;DHT22;21486;51.916;8.378;2022-12-18T04:17:38;-9.40;92.00
35381;DHT22;21486;51.916;8.378;2022-12-18T04:20:05;-9.40;92.00
35381;DHT22;21486;51.916;8.378;2022-12-18T04:22:30;-9.30;92.10
35381;DHT22;21486;51.916;8.378;2022-12-18T04:24:56;-9.30;92.10
35381;DHT22;21486;51.916;8.378;2022-12-18T04:27:21;-9.30;92.10
35381;DHT22;21486;51.916;8.378;2022-12-18T04:29:47;-9.30;92.50
35381;DHT22;21486;51.916;8.378;2022-12-18T04:32:13;-9.20;93.00
35381;DHT22;21486;51.916;8.378;2022-12-18T04:34:38;-9.20;92.80
35381;DHT22;21486;51.916;8.378;2022-12-18T04:37:04;-9.10;93.20
35381;DHT22;21486;51.916;8.378;2022-12-18T04:39:29;-8.90;93.90
35381;DHT22;21486;51.916;8.378;2022-12-18T04:41:55;-8.60;94.00
35381;DHT22;21486;51.916;8.378;2022-12-18T04:44:21;-8.50;93.80
35381;DHT22;21486;51.916;8.378;2022-12-18T04:46:46;-8.40;94.40
35381;DHT22;21486;51.916;8.378;2022-12-18T04:49:12;-8.20;94.60
35381;DHT22;21486;51.916;8.378;2022-12-18T04:51:37;-8.00;94.80
35381;DHT22;21486;51.916;8.378;2022-12-18T04:54:03;-7.80;94.80
35381;DHT22;21486;51.916;8.378;2022-12-18T04:56:30;-7.80;94.60
35381;DHT22;21486;51.916;8.378;2022-12-18T04:58:56;-7.60;94.80
35381;DHT22;21486;51.916;8.378;2022-12-18T05:01:22;-7.50;94.80
35381;DHT22;21486;51.916;8.378;2022-12-18T05:03:48;-7.30;94.80
35381;DHT22;21486;51.916;8.378;2022-12-18T05:06:14;-7.10;94.70
35381;DHT22;21486;51.916;8.378;2022-12-18T05:08:39;-7.00;94.60
35381;DHT22;21486;51.916;8.378;2022-12-18T05:11:10;-6.90;94.30
35381;DHT22;21486;51.916;8.378;2022-12-18T05:13:36;-6.80;94.30
35381;DHT22;21486;51.916;8.378;2022-12-18T05:16:04;-6.70;94.00
35381;DHT22;21486;51.916;8.378;2022-12-18T05:18:30;-6.70;94.20
35381;DHT22;21486;51.916;8.378;2022-12-18T05:20:56;-6.80;93.80
35381;DHT22;21486;51.916;8.378;2022-12-18T05:23:22;-6.80;94.10
35381;DHT22;21486;51.916;8.378;2022-12-18T05:26:03;-6.80;94.50
35381;DHT22;21486;51.916;8.378;2022-12-18T05:28:30;-6.80;94.30
35381;DHT22;21486;51.916;8.378;2022-12-18T05:30:58;-6.70;94.20
35381;DHT22;21486;51.916;8.378;2022-12-18T05:33:26;-6.70;94.10
35381;DHT22;21486;51.916;8.378;2022-12-18T05:35:57;-6.90;94.10
35381;DHT22;21486;51.916;8.378;2022-12-18T05:38:24;-7.00;94.30
35381;DHT22;21486;51.916;8.378;2022-12-18T05:40:51;-7.10;94.50
35381;DHT22;21486;51.916;8.378;2022-12-18T05:43:18;-7.20;94.60
35381;DHT22;21486;51.916;8.378;2022-12-18T05:45:43;-7.10;95.00
35381;DHT22;21486;51.916;8.378;2022-12-18T05:48:15;-7.10;95.10
35381;DHT22;21486;51.916;8.378;2022-12-18T05:50:42;-7.00;94.60
35381;DHT22;21486;51.916;8.378;2022-12-18T05:53:08;-6.90;94.30
35381;DHT22;21486;51.916;8.378;2022-12-18T05:55:38;-6.90;94.20
35381;DHT22;21486;51.916;8.378;2022-12-18T05:58:04;-6.90;94.10
35381;DHT22;21486;51.916;8.378;2022-12-18T06:00:31;-6.70;94.10
35381;DHT22;21486;51.916;8.378;2022-12-18T06:02:57;-6.70;94.00
35381;DHT22;21486;51.916;8.378;2022-12-18T06:05:23;-6.60;93.80
35381;DHT22;21486;51.916;8.378;2022-12-18T06:07:49;-6.50;93.70
35381;DHT22;21486;51.916;8.378;2022-12-18T06:10:14;-6.50;93.70
35381;DHT22;21486;51.916;8.378;2022-12-18T06:12:40;-6.40;93.70
35381;DHT22;21486;51.916;8.378;2022-12-18T06:15:06;-6.40;93.70
35381;DHT22;21486;51.916;8.378;2022-12-18T06:17:33;-6.40;93.60
35381;DHT22;21486;51.916;8.378;2022-12-18T06:19:58;-6.30;93.50
35381;DHT22;21486;51.916;8.378;2022-12-18T06:22:24;-6.40;93.60
35381;DHT22;21486;51.916;8.378;2022-12-18T06:24:50;-6.40;93.60
35381;DHT22;21486;51.916;8.378;2022-12-18T06:27:16;-6.30;93.60
35381;DHT22;21486;51.916;8.378;2022-12-18T06:29:41;-6.30;93.70
35381;DHT22;21486;51.916;8.378;2022-12-18T06:32:07;-6.30;93.60
35381;DHT22;21486;51.916;8.378;2022-12-18T06:34:33;-6.30;93.70
35381;DHT22;21486;51.916;8.378;2022-12-18T06:36:59;-6.40;93.70
35381;DHT22;21486;51.916;8.378;2022-12-18T06:39:27;-6.40;93.90
35381;DHT22;21486;51.916;8.378;2022-12-18T06:41:52;-6.40;93.90
35381;DHT22;21486;51.916;8.378;2022-12-18T06:44:18;-6.50;94.00
35381;DHT22;21486;51.916;8.378;2022-12-18T06:46:44;-6.50;94.10
35381;DHT22;21486;51.916;8.378;2022-12-18T06:49:09;-6.50;94.10
35381;DHT22;21486;51.916;8.378;2022-12-18T06:51:35;-6.50;94.10
35381;DHT22;21486;51.916;8.378;2022-12-18T06:54:01;-6.40;94.10
35381;DHT22;21486;51.916;8.378;2022-12-18T06:56:26;-6.40;94.20
35381;DHT22;21486;51.916;8.378;2022-12-18T06:58:53;-6.30;94.20
35381;DHT22;21486;51.916;8.378;2022-12-18T07:01:18;-6.20;93.90
35381;DHT22;21486;51.916;8.378;2022-12-18T07:03:44;-6.20;94.00
35381;DHT22;21486;51.916;8.378;2022-12-18T07:06:14;-6.20;93.80
35381;DHT22;21486;51.916;8.378;2022-12-18T07:08:40;-6.20;94.00
35381;DHT22;21486;51.916;8.378;2022-12-18T07:11:06;-6.20;93.90
35381;DHT22;21486;51.916;8.378;2022-12-18T07:13:31;-6.20;93.80
35381;DHT22;21486;51.916;8.378;2022-12-18T07:16:21;-6.10;94.00
35381;DHT22;21486;51.916;8.378;2022-12-18T07:18:47;-6.00;93.90
35381;DHT22;21486;51.916;8.378;2022-12-18T07:21:17;-5.90;93.60
35381;DHT22;21486;51.916;8.378;2022-12-18T07:23:43;-5.80;93.60
35381;DHT22;21486;51.916;8.378;2022-12-18T07:26:12;-5.80;93.50
35381;DHT22;21486;51.916;8.378;2022-12-18T07:28:39;-5.90;93.60
35381;DHT22;21486;51.916;8.378;2022-12-18T07:31:11;-5.90;93.60
35381;DHT22;21486;51.916;8.378;2022-12-18T07:33:37;-5.90;93.70
35381;DHT22;21486;51.916;8.378;2022-12-18T07:36:05;-5.80;93.80
35381;DHT22;21486;51.916;8.378;2022-12-18T07:38:31;-5.70;93.60
35381;DHT22;21486;51.916;8.378;2022-12-18T07:41:05;-5.60;93.30
35381;DHT22;21486;51.916;8.378;2022-12-18T07:43:31;-5.50;93.10
35381;DHT22;21486;51.916;8.378;2022-12-18T07:45:57;-5.50;93.00
35381;DHT22;21486;51.916;8.378;2022-12-18T07:48:22;-5.50;93.10
35381;DHT22;21486;51.916;8.378;2022-12-18T07:50:48;-5.40;93.10
35381;DHT22;21486;51.916;8.378;2022-12-18T07:53:13;-5.40;92.70
35381;DHT22;21486;51.916;8.378;2022-12-18T07:55:40;-5.40;92.80
35381;DHT22;21486;51.916;8.378;2022-12-18T07:58:07;-5.40;93.00
35381;DHT22;21486;51.916;8.378;2022-12-18T08:00:33;-5.30;92.90
35381;DHT22;21486;51.916;8.378;2022-12-18T08:02:59;-5.20;92.90
35381;DHT22;21486;51.916;8.378;2022-12-18T08:05:25;-5.30;92.60
35381;DHT22;21486;51.916;8.378;2022-12-18T08:07:50;-5.30;92.70
35381;DHT22;21486;51.916;8.378;2022-12-18T08:10:16;-5.30;92.80
35381;DHT22;21486;51.916;8.378;2022-12-18T08:12:42;-5.20;92.70
35381;DHT22;21486;51.916;8.378;2022-12-18T08:15:08;-5.20;92.60
35381;DHT22;21486;51.916;8.378;2022-12-18T08:17:33;-5.20;92.70
35381;DHT22;21486;51.916;8.378;2022-12-18T08:19:59;-5.20;92.80
35381;DHT22;21486;51.916;8.378;2022-12-18T08:22:24;-5.10;92.80
35381;DHT22;21486;51.916;8.378;2022-12-18T08:24:50;-4.90;92.80
35381;DHT22;21486;51.916;8.378;2022-12-18T08:27:16;-4.80;92.50
35381;DHT22;21486;51.916;8.378;2022-12-18T08:29:41;-4.70;92.10
35381;DHT22;21486;51.916;8.378;2022-12-18T08:32:07;-4.60;92.00
35381;DHT22;21486;51.916;8.378;2022-12-18T08:34:32;-4.60;91.90
35381;DHT22;21486;51.916;8.378;2022-12-18T08:36:58;-4.50;91.80
35381;DHT22;21486;51.916;8.378;2022-12-18T08:39:23;-4.50;91.70
35381;DHT22;21486;51.916;8.378;2022-12-18T08:41:49;-4.40;91.60
35381;DHT22;21486;51.916;8.378;2022-12-18T08:44:33;-4.30;91.70
35381;DHT22;21486;51.916;8.378;2022-12-18T08:47:06;-4.30;91.40
35381;DHT22;21486;51.916;8.378;2022-12-18T08:49:32;-4.20;91.40
35381;DHT22;21486;51.916;8.378;2022-12-18T08:51:58;-4.10;91.40
35381;DHT22;21486;51.916;8.378;2022-12-18T08:54:25;-4.00;91.10
35381;DHT22;21486;51.916;8.378;2022-12-18T08:56:51;-3.90;91.20
35381;DHT22;21486;51.916;8.378;2022-12-18T08:59:17;-3.80;90.80
35381;DHT22;21486;51.916;8.378;2022-12-18T09:01:43;-3.60;90.40
35381;DHT22;21486;51.916;8.378;2022-12-18T09:04:09;-3.40;90.20
35381;DHT22;21486;51.916;8.378;2022-12-18T09:06:35;-3.20;89.90
35381;DHT22;21486;51.916;8.378;2022-12-18T09:09:01;-3.00;89.30
35381;DHT22;21486;51.916;8.378;2022-12-18T09:11:28;-2.70;88.30
35381;DHT22;21486;51.916;8.378;2022-12-18T09:13:55;-2.20;86.70
35381;DHT22;21486;51.916;8.378;2022-12-18T09:16:22;-1.70;84.20
35381;DHT22;21486;51.916;8.378;2022-12-18T09:18:48;-1.50;82.30
35381;DHT22;21486;51.916;8.378;2022-12-18T09:21:16;-1.60;81.70
35381;DHT22;21486;51.916;8.378;2022-12-18T09:23:42;-1.70;81.70
35381;DHT22;21486;51.916;8.378;2022-12-18T09:26:08;-1.80;82.40
35381;DHT22;21486;51.916;8.378;2022-12-18T09:28:34;-1.80;82.70
35381;DHT22;21486;51.916;8.378;2022-12-18T09:31:04;-1.60;82.50
35381;DHT22;21486;51.916;8.378;2022-12-18T09:33:31;-1.30;81.20
35381;DHT22;21486;51.916;8.378;2022-12-18T09:35:56;-1.10;80.00
35381;DHT22;21486;51.916;8.378;2022-12-18T09:38:22;-0.90;80.00
35381;DHT22;21486;51.916;8.378;2022-12-18T09:40:51;-0.70;77.90
35381;DHT22;21486;51.916;8.378;2022-12-18T09:43:24;-0.30;76.70
35381;DHT22;21486;51.916;8.378;2022-12-18T09:45:56;-0.30;75.90
35381;DHT22;21486;51.916;8.378;2022-12-18T09:48:30;0.00;75.10
35381;DHT22;21486;51.916;8.378;2022-12-18T09:51:00;0.30;74.30
35381;DHT22;21486;51.916;8.378;2022-12-18T09:53:28;0.30;73.40
35381;DHT22;21486;51.916;8.378;2022-12-18T09:55:56;0.40;73.60
35381;DHT22;21486;51.916;8.378;2022-12-18T09:58:40;0.40;73.40
35381;DHT22;21486;51.916;8.378;2022-12-18T10:01:10;0.20;73.50
35381;DHT22;21486;51.916;8.378;2022-12-18T10:03:35;0.30;74.10
35381;DHT22;21486;51.916;8.378;2022-12-18T10:06:24;0.40;74.10
35381;DHT22;21486;51.916;8.378;2022-12-18T10:09:01;0.80;73.10
35381;DHT22;21486;51.916;8.378;2022-12-18T10:11:39;1.00;71.60
35381;DHT22;21486;51.916;8.378;2022-12-18T10:14:14;1.30;71.10
35381;DHT22;21486;51.916;8.378;2022-12-18T10:16:43;1.40;70.40
35381;DHT22;21486;51.916;8.378;2022-12-18T10:26:46;2.00;68.70
35381;DHT22;21486;51.916;8.378;2022-12-18T10:29:13;2.00;67.00
35381;DHT22;21486;51.916;8.378;2022-12-18T10:31:39;1.80;66.70
35381;DHT22;21486;51.916;8.378;2022-12-18T10:34:08;1.30;69.00
35381;DHT22;21486;51.916;8.378;2022-12-18T10:36:34;1.40;68.80
35381;DHT22;21486;51.916;8.378;2022-12-18T10:39:16;1.50;68.10
35381;DHT22;21486;51.916;8.378;2022-12-18T10:41:41;1.20;69.20
35381;DHT22;21486;51.916;8.378;2022-12-18T10:46:35;1.40;68.50
35381;DHT22;21486;51.916;8.378;2022-12-18T10:49:01;1.20;69.20
35381;DHT22;21486;51.916;8.378;2022-12-18T10:51:28;0.90;68.90
35381;DHT22;21486;51.916;8.378;2022-12-18T10:56:29;0.40;71.60
35381;DHT22;21486;51.916;8.378;2022-12-18T10:58:56;0.20;71.80
35381;DHT22;21486;51.916;8.378;2022-12-18T11:01:22;0.10;72.50
35381;DHT22;21486;51.916;8.378;2022-12-18T11:06:20;-0.20;73.50
35381;DHT22;21486;51.916;8.378;2022-12-18T11:09:08;-0.20;74.30
35381;DHT22;21486;51.916;8.378;2022-12-18T11:11:48;-0.20;73.80
35381;DHT22;21486;51.916;8.378;2022-12-18T11:14:24;-0.30;73.70
35381;DHT22;21486;51.916;8.378;2022-12-18T11:16:50;-0.20;73.60
35381;DHT22;21486;51.916;8.378;2022-12-18T11:19:36;-0.10;73.60
35381;DHT22;21486;51.916;8.378;2022-12-18T11:22:21;0.00;72.80
35381;DHT22;21486;51.916;8.378;2022-12-18T11:25:21;0.00;72.80
35381;DHT22;21486;51.916;8.378;2022-12-18T11:27:39;0.00;72.20
35381;DHT22;21486;51.916;8.378;2022-12-18T11:32:40;0.00;72.30
35381;DHT22;21486;51.916;8.378;2022-12-18T11:35:11;0.00;71.80
35381;DHT22;21486;51.916;8.378;2022-12-18T11:37:39;0.10;72.00
35381;DHT22;21486;51.916;8.378;2022-12-18T11:40:07;0.10;71.40
35381;DHT22;21486;51.916;8.378;2022-12-18T11:42:38;0.10;70.80
35381;DHT22;21486;51.916;8.378;2022-12-18T11:47:41;0.20;70.50
35381;DHT22;21486;51.916;8.378;2022-12-18T11:52:44;0.30;70.40
35381;DHT22;21486;51.916;8.378;2022-12-18T11:55:11;0.20;70.40
35381;DHT22;21486;51.916;8.378;2022-12-18T11:57:39;0.20;70.20
35381;DHT22;21486;51.916;8.378;2022-12-18T12:00:19;0.30;69.80
35381;DHT22;21486;51.916;8.378;2022-12-18T12:03:01;0.30;70.00
35381;DHT22;21486;51.916;8.378;2022-12-18T12:05:31;0.30;69.10
35381;DHT22;21486;51.916;8.378;2022-12-18T12:08:46;0.30;69.10
35381;DHT22;21486;51.916;8.378;2022-12-18T12:11:25;0.30;68.70
35381;DHT22;21486;51.916;8.378;2022-12-18T12:19:01;0.30;67.50
35381;DHT22;21486;51.916;8.378;2022-12-18T12:21:40;0.30;67.50
35381;DHT22;21486;51.916;8.378;2022-12-18T12:34:19;0.30;66.60
35381;DHT22;21486;51.916;8.378;2022-12-18T12:39:31;0.30;67.00
35381;DHT22;21486;51.916;8.378;2022-12-18T12:41:59;0.40;66.40
35381;DHT22;21486;51.916;8.378;2022-12-18T12:44:47;0.40;66.30
35381;DHT22;21486;51.916;8.378;2022-12-18T12:47:32;0.40;65.80
35381;DHT22;21486;51.916;8.378;2022-12-18T12:49:59;0.40;66.10
35381;DHT22;21486;51.916;8.378;2022-12-18T12:52:34;0.40;65.70
35381;DHT22;21486;51.916;8.378;2022-12-18T12:55:02;0.50;65.70
35381;DHT22;21486;51.916;8.378;2022-12-18T12:57:39;0.50;65.60
35381;DHT22;21486;51.916;8.378;2022-12-18T13:00:08;0.50;65.90
35381;DHT22;21486;51.916;8.378;2022-12-18T13:02:39;0.50;65.60
35381;DHT22;21486;51.916;8.378;2022-12-18T13:05:19;0.40;65.60
35381;DHT22;21486;51.916;8.378;2022-12-18T13:07:54;0.40;65.30
35381;DHT22;21486;51.916;8.378;2022-12-18T13:10:25;0.40;65.60
35381;DHT22;21486;51.916;8.378;2022-12-18T13:12:52;0.40;64.90
35381;DHT22;21486;51.916;8.378;2022-12-18T13:15:21;0.40;65.30
35381;DHT22;21486;51.916;8.378;2022-12-18T13:17:47;0.40;64.30
35381;DHT22;21486;51.916;8.378;2022-12-18T13:20:14;0.40;64.60
35381;DHT22;21486;51.916;8.378;2022-12-18T13:22:42;0.40;64.50
35381;DHT22;21486;51.916;8.378;2022-12-18T13:25:28;0.40;64.60
35381;DHT22;21486;51.916;8.378;2022-12-18T13:40:56;0.30;64.70
35381;DHT22;21486;51.916;8.378;2022-12-18T13:46:00;0.30;65.20
35381;DHT22;21486;51.916;8.378;2022-12-18T13:48:27;0.30;64.30
35381;DHT22;21486;51.916;8.378;2022-12-18T13:50:55;0.40;64.00
35381;DHT22;21486;51.916;8.378;2022-12-18T13:53:23;0.40;64.00
35381;DHT22;21486;51.916;8.378;2022-12-18T13:55:49;0.40;63.80
35381;DHT22;21486;51.916;8.378;2022-12-18T13:58:15;0.40;64.00
35381;DHT22;21486;51.916;8.378;2022-12-18T14:00:41;0.40;63.50
35381;DHT22;21486;51.916;8.378;2022-12-18T14:05:45;0.40;63.70
35381;DHT22;21486;51.916;8.378;2022-12-18T14:08:14;0.40;63.40
35381;DHT22;21486;51.916;8.378;2022-12-18T14:10:41;0.40;63.10
35381;DHT22;21486;51.916;8.378;2022-12-18T14:13:08;0.40;64.00
35381;DHT22;21486;51.916;8.378;2022-12-18T14:15:35;0.50;63.20
35381;DHT22;21486;51.916;8.378;2022-12-18T14:18:26;0.40;62.80
35381;DHT22;21486;51.916;8.378;2022-12-18T14:20:54;0.40;63.00
35381;DHT22;21486;51.916;8.378;2022-12-18T14:25:53;0.40;63.10
35381;DHT22;21486;51.916;8.378;2022-12-18T14:28:18;0.40;63.40
35381;DHT22;21486;51.916;8.378;2022-12-18T14:30:45;0.40;62.80
35381;DHT22;21486;51.916;8.378;2022-12-18T14:33:12;0.30;62.70
35381;DHT22;21486;51.916;8.378;2022-12-18T14:35:38;0.30;62.90
35381;DHT22;21486;51.916;8.378;2022-12-18T14:38:09;0.40;62.40
35381;DHT22;21486;51.916;8.378;2022-12-18T14:40:35;0.30;62.90
35381;DHT22;21486;51.916;8.378;2022-12-18T14:43:00;0.40;62.60
35381;DHT22;21486;51.916;8.378;2022-12-18T14:45:35;0.30;62.80
35381;DHT22;21486;51.916;8.378;2022-12-18T14:48:05;0.30;62.90
35381;DHT22;21486;51.916;8.378;2022-12-18T14:50:32;0.30;62.70
35381;DHT22;21486;51.916;8.378;2022-12-18T14:52:58;0.30;62.80
35381;DHT22;21486;51.916;8.378;2022-12-18T14:55:23;0.20;63.00
35381;DHT22;21486;51.916;8.378;2022-12-18T14:57:50;0.20;63.10
35381;DHT22;21486;51.916;8.378;2022-12-18T15:00:17;0.20;63.60
35381;DHT22;21486;51.916;8.378;2022-12-18T15:02:44;0.20;63.70
35381;DHT22;21486;51.916;8.378;2022-12-18T15:07:40;0.20;63.70
35381;DHT22;21486;51.916;8.378;2022-12-18T15:10:13;0.20;63.60
35381;DHT22;21486;51.916;8.378;2022-12-18T15:17:58;0.10;64.30
35381;DHT22;21486;51.916;8.378;2022-12-18T15:20:24;0.10;64.60
35381;DHT22;21486;51.916;8.378;2022-12-18T15:22:49;0.10;64.70
35381;DHT22;21486;51.916;8.378;2022-12-18T15:27:53;0.00;64.90
35381;DHT22;21486;51.916;8.378;2022-12-18T15:30:19;0.00;64.80
35381;DHT22;21486;51.916;8.378;2022-12-18T15:32:45;0.00;65.10
35381;DHT22;21486;51.916;8.378;2022-12-18T15:37:37;0.00;65.20
35381;DHT22;21486;51.916;8.378;2022-12-18T15:40:02;-0.10;65.20
35381;DHT22;21486;51.916;8.378;2022-12-18T15:42:28;-0.10;65.50
35381;DHT22;21486;51.916;8.378;2022-12-18T15:45:13;-0.10;65.70
35381;DHT22;21486;51.916;8.378;2022-12-18T15:47:38;-0.10;65.90
35381;DHT22;21486;51.916;8.378;2022-12-18T15:50:04;-0.10;65.80
35381;DHT22;21486;51.916;8.378;2022-12-18T15:52:31;-0.10;65.60
35381;DHT22;21486;51.916;8.378;2022-12-18T15:55:00;-0.20;65.80
35381;DHT22;21486;51.916;8.378;2022-12-18T15:57:44;-0.20;66.00
35381;DHT22;21486;51.916;8.378;2022-12-18T16:00:11;-0.20;65.50
35381;DHT22;21486;51.916;8.378;2022-12-18T16:02:37;-0.20;65.70
35381;DHT22;21486;51.916;8.378;2022-12-18T16:05:02;-0.20;65.40
35381;DHT22;21486;51.916;8.378;2022-12-18T16:07:28;-0.10;65.00
35381;DHT22;21486;51.916;8.378;2022-12-18T16:09:53;-0.10;65.10
35381;DHT22;21486;51.916;8.378;2022-12-18T16:12:22;-0.10;65.00
35381;DHT22;21486;51.916;8.378;2022-12-18T16:14:48;-0.10;65.00
35381;DHT22;21486;51.916;8.378;2022-12-18T16:17:14;-0.10;64.50
35381;DHT22;21486;51.916;8.378;2022-12-18T16:19:39;-0.10;64.50
35381;DHT22;21486;51.916;8.378;2022-12-18T16:22:05;-0.10;64.40
35381;DHT22;21486;51.916;8.378;2022-12-18T16:24:32;-0.10;64.30
35381;DHT22;21486;51.916;8.378;2022-12-18T16:26:58;-0.10;64.40
35381;DHT22;21486;51.916;8.378;2022-12-18T16:29:24;0.00;64.30
35381;DHT22;21486;51.916;8.378;2022-12-18T16:31:58;0.00;64.40
35381;DHT22;21486;51.916;8.378;2022-12-18T16:36:52;-0.10;64.50
35381;DHT22;21486;51.916;8.378;2022-12-18T16:39:18;-0.10;64.60
35381;DHT22;21486;51.916;8.378;2022-12-18T16:41:44;-0.10;65.10
35381;DHT22;21486;51.916;8.378;2022-12-18T16:44:10;-0.10;65.00
35381;DHT22;21486;51.916;8.378;2022-12-18T16:46:36;0.00;65.30
35381;DHT22;21486;51.916;8.378;2022-12-18T16:49:01;-0.10;65.40
35381;DHT22;21486;51.916;8.378;2022-12-18T16:51:27;-0.10;65.60
35381;DHT22;21486;51.916;8.378;2022-12-18T16:53:53;-0.10;65.80
35381;DHT22;21486;51.916;8.378;2022-12-18T16:56:19;-0.10;66.00
35381;DHT22;21486;51.916;8.378;2022-12-18T16:58:49;-0.20;65.90
35381;DHT22;21486;51.916;8.378;2022-12-18T17:01:14;-0.20;66.00
35381;DHT22;21486;51.916;8.378;2022-12-18T17:03:40;-0.30;66.10
35381;DHT22;21486;51.916;8.378;2022-12-18T17:06:05;-0.30;66.30
35381;DHT22;21486;51.916;8.378;2022-12-18T17:08:31;-0.20;65.90
35381;DHT22;21486;51.916;8.378;2022-12-18T17:11:02;-0.20;66.30
35381;DHT22;21486;51.916;8.378;2022-12-18T17:13:28;-0.30;66.30
35381;DHT22;21486;51.916;8.378;2022-12-18T17:15:53;-0.30;66.30
35381;DHT22;21486;51.916;8.378;2022-12-18T17:18:19;-0.30;66.20
35381;DHT22;21486;51.916;8.378;2022-12-18T17:20:45;-0.30;66.30
35381;DHT22;21486;51.916;8.378;2022-12-18T17:23:11;-0.30;66.20